Time;durP1;ratioP1;P1;durP2;ratioP2;P2;SDS_P1;SDS_P2;PMS_P1;PMS_P2;Temp;Humidity;BMP_temperature;BMP_pressure;BME280_temperature;BME280_humidity;BME280_pressure;Samples;Min_cycle;Max_cycle;Signal;HPM_P1;HPM_P2
2021/03/29 00:01:27;;;;;;;;;81.00;64.67;;;;;7.36;72.00;102195.13;5157462;27;8964;-75
2021/03/29 00:04:23;;;;;;;;;79.67;64.00;;;;;7.28;71.99;102195.63;5131266;27;8960;-75
2021/03/29 00:07:20;;;;;;;;;82.00;66.00;;;;;7.28;72.28;102194.81;5143049;27;8893;-75
2021/03/29 00:10:17;;;;;;;;;80.33;63.33;;;;;7.34;71.93;102194.56;5142673;27;8967;-75
2021/03/29 00:13:14;;;;;;;;;78.00;62.00;;;;;7.45;71.40;102184.41;5129991;27;9006;-77
2021/03/29 00:16:12;;;;;;;;;72.67;59.00;;;;;7.39;70.95;102186.31;5143079;27;8893;-74
2021/03/29 00:19:09;;;;;;;;;79.67;63.67;;;;;7.27;71.35;102171.16;5141729;27;8821;-74
2021/03/29 00:21:44;;;;;;;;;78.00;62.67;;;;;7.32;71.77;102173.91;5120264;27;8851;-75
2021/03/29 00:24:40;;;;;;;;;81.67;65.00;;;;;7.41;71.58;102175.84;5136984;27;8846;-75
2021/03/29 00:27:35;;;;;;;;;85.00;67.67;;;;;7.42;70.81;102180.25;5136377;27;8815;-75
2021/03/29 00:30:37;;;;;;;;;78.67;62.00;;;;;7.40;70.61;102171.44;5135364;27;8839;-74
2021/03/29 00:33:34;;;;;;;;;83.00;66.33;;;;;7.33;71.84;102175.56;5121412;27;8843;-75
2021/03/29 00:36:31;;;;;;;;;77.33;62.33;;;;;7.33;71.32;102164.56;5141822;27;8889;-75
2021/03/29 00:39:28;;;;;;;;;78.00;62.67;;;;;7.43;70.97;102162.63;5142381;27;9032;-75
2021/03/29 00:42:25;;;;;;;;;72.25;58.75;;;;;7.52;70.21;102163.75;5155759;27;11588;-75
2021/03/29 00:45:21;;;;;;;;;72.00;59.00;;;;;7.52;69.70;102161.00;5156313;27;11506;-75
2021/03/29 00:48:20;;;;;;;;;69.50;57.50;;;;;7.60;69.33;102159.63;5155793;27;11501;-75
2021/03/29 00:51:15;;;;;;;;;72.50;59.25;;;;;7.61;69.52;102153.03;5141528;27;11607;-75
2021/03/29 00:54:11;;;;;;;;;63.00;52.00;;;;;7.52;69.18;102161.00;5155497;27;11497;-75
2021/03/29 00:57:07;;;;;;;;;64.75;53.50;;;;;7.53;68.95;102159.91;5141527;27;11503;-75
2021/03/29 01:00:31;;;;;;;;;68.00;56.50;;;;;7.43;69.20;102157.13;5155558;27;11507;-75
2021/03/29 01:02:59;;;;;;;;;67.50;56.00;;;;;7.55;68.97;102162.38;5155664;27;11554;-75
2021/03/29 01:06:04;;;;;;;;;67.25;55.25;;;;;7.41;69.66;102156.56;5141252;27;11634;-74
2021/03/29 01:09:07;;;;;;;;;67.00;56.25;;;;;7.50;69.47;102156.84;5121137;27;11691;-75
2021/03/29 01:12:07;;;;;;;;;68.67;58.33;;;;;7.36;69.57;102148.34;5134921;27;11506;-75
2021/03/29 01:15:04;;;;;;;;;76.33;60.33;;;;;7.37;69.39;102155.50;5135005;27;11533;-75
2021/03/29 01:18:02;;;;;;;;;64.75;54.00;;;;;7.12;70.29;102158.19;5133793;27;11616;-74
2021/03/29 01:21:12;;;;;;;;;68.00;57.00;;;;;7.05;71.18;102154.84;5134920;27;11481;-75
2021/03/29 01:24:30;;;;;;;;;69.00;57.00;;;;;7.04;70.94;102158.72;5134312;27;11538;-75
2021/03/29 01:27:32;;;;;;;;;70.00;57.25;;;;;7.17;70.13;102149.94;5122073;27;11625;-76
2021/03/29 01:30:31;;;;;;;;;74.33;60.67;;;;;7.01;70.01;102151.00;5134783;27;11537;-76
2021/03/29 01:33:27;;;;;;;;;69.33;57.33;;;;;6.95;70.20;102152.91;5121760;27;11502;-74
2021/03/29 01:36:24;;;;;;;;;68.33;57.00;;;;;6.89;70.76;102152.06;5138875;27;11491;-75
2021/03/29 01:39:21;;;;;;;;;72.00;57.67;;;;;6.79;71.09;102145.72;5154845;27;11499;-75
2021/03/29 01:42:18;;;;;;;;;71.50;56.25;;;;;6.93;70.35;102139.44;5140842;27;11603;-75
2021/03/29 01:45:15;;;;;;;;;71.67;58.67;;;;;6.75;71.08;102139.09;5154713;27;12308;-76
2021/03/29 01:48:12;;;;;;;;;70.67;59.67;;;;;6.77;70.79;102131.41;5154506;27;11655;-75
2021/03/29 01:51:09;;;;;;;;;75.00;60.67;;;;;6.72;70.51;102128.66;5154292;27;11519;-75
2021/03/29 01:54:05;;;;;;;;;73.00;60.00;;;;;6.77;70.23;102134.16;5154530;27;9689;-75
2021/03/29 01:57:10;;;;;;;;;81.67;62.67;;;;;6.73;70.33;102131.13;5140677;27;11496;-75
2021/03/29 02:00:12;;;;;;;;;67.00;56.00;;;;;6.70;70.51;102134.41;5154831;27;8891;-74
2021/03/29 02:03:10;;;;;;;;;68.67;57.33;;;;;6.54;71.21;102136.28;5140672;27;11490;-75
2021/03/29 02:06:07;;;;;;;;;67.33;56.00;;;;;6.52;71.17;102135.72;5138183;27;11576;-75
2021/03/29 02:09:06;;;;;;;;;75.00;61.00;;;;;6.49;70.85;102133.50;5120379;27;8849;-74
2021/03/29 02:12:09;;;;;;;;;99.00;76.33;;;;;6.57;70.70;102130.25;5119940;27;8847;-75
2021/03/29 02:15:09;;;;;;;;;100.00;80.00;;;;;6.68;70.03;102131.94;5133899;27;8838;-75
2021/03/29 02:18:09;;;;;;;;;98.00;70.33;;;;;6.92;69.54;102126.78;5133393;27;8990;-75
2021/03/29 02:21:19;;;;;;;;;126.33;109.33;;;;;7.02;69.13;102136.97;5133881;27;8899;-74
2021/03/29 02:24:15;;;;;;;;;109.67;98.00;;;;;7.06;68.76;102134.53;5133244;27;8859;-74
2021/03/29 02:27:11;;;;;;;;;111.00;104.33;;;;;7.10;68.79;102135.63;5135519;27;8829;-73
2021/03/29 02:30:10;;;;;;;;;126.33;113.67;;;;;7.00;69.25;102135.59;5154323;27;8837;-74
2021/03/29 02:33:07;;;;;;;;;132.25;105.00;;;;;7.04;68.88;102128.44;5140110;27;8844;-75
2021/03/29 02:36:03;;;;;;;;;120.33;107.67;;;;;7.18;68.51;102140.59;5140393;27;8813;-75
2021/03/29 02:38:59;;;;;;;;;138.67;121.33;;;;;7.25;68.53;102146.66;5140405;27;8825;-75
2021/03/29 02:41:56;;;;;;;;;128.67;105.33;;;;;7.30;68.33;102145.84;5153505;27;8924;-75
2021/03/29 02:44:52;;;;;;;;;92.33;76.00;;;;;7.31;68.19;102139.25;5141259;27;8963;-75
2021/03/29 02:47:48;;;;;;;;;89.33;67.33;;;;;7.31;68.34;102142.81;5140210;27;8933;-75
2021/03/29 02:50:47;;;;;;;;;73.00;59.33;;;;;7.06;68.62;102146.34;5139689;27;8839;-75
2021/03/29 02:53:49;;;;;;;;;59.50;49.25;;;;;7.00;68.75;102144.69;5137982;27;11502;-76
2021/03/29 02:56:47;;;;;;;;;61.00;50.50;;;;;7.22;68.28;102139.78;5141766;27;11515;-75
2021/03/29 02:59:44;;;;;;;;;47.50;41.75;;;;;7.24;68.23;102137.56;5149507;27;11517;-75
2021/03/29 03:02:42;;;;;;;;;54.25;47.75;;;;;7.06;68.44;102132.59;5133525;27;11468;-75
2021/03/29 03:05:39;;;;;;;;;55.50;48.50;;;;;7.06;68.71;102129.03;5119734;27;11497;-74
2021/03/29 03:08:41;;;;;;;;;71.50;57.00;;;;;7.23;68.08;102143.34;5132177;27;11484;-75
2021/03/29 03:11:37;;;;;;;;;80.67;59.00;;;;;7.15;68.25;102144.72;5119737;27;11632;-74
2021/03/29 03:14:33;;;;;;;;;80.67;62.33;;;;;7.09;68.42;102142.22;5124322;27;8833;-76
2021/03/29 03:17:28;;;;;;;;;49.00;41.75;;;;;7.02;68.59;102147.16;5152903;27;8863;-75
2021/03/29 03:20:25;;;;;;;;;59.50;49.25;;;;;7.02;68.72;102147.16;5138957;27;11495;-76
2021/03/29 03:23:21;;;;;;;;;73.67;57.33;;;;;7.08;68.70;102148.84;5153963;27;11523;-74
2021/03/29 03:26:17;;;;;;;;;80.33;62.67;;;;;6.99;68.66;102147.72;5140009;27;11518;-75
2021/03/29 03:29:13;;;;;;;;;76.67;59.00;;;;;6.96;68.74;102140.81;5157387;27;8865;-75
2021/03/29 03:32:13;;;;;;;;;77.33;63.00;;;;;6.87;69.41;102146.03;5143583;27;11486;-75
2021/03/29 03:35:10;;;;;;;;;72.67;57.33;;;;;6.93;69.29;102139.44;5143668;27;8864;-74
2021/03/29 03:38:23;;;;;;;;;75.00;57.00;;;;;7.02;68.90;102145.22;5145309;27;11551;-75
2021/03/29 03:41:29;;;;;;;;;69.00;57.33;;;;;6.97;69.05;102150.72;5143279;27;11537;-74
2021/03/29 03:44:26;;;;;;;;;69.67;56.33;;;;;6.89;69.15;102151.25;5122520;27;11611;-76
2021/03/29 03:46:57;;;;;;;;;76.00;57.67;;;;;7.00;69.21;102141.94;5138046;27;11575;-75
2021/03/29 03:49:53;;;;;;;;;94.33;75.00;;;;;6.90;69.57;102147.38;5122353;27;8823;-75
2021/03/29 03:52:50;;;;;;;;;72.00;59.33;;;;;6.88;69.82;102141.34;5136360;27;8838;-75
2021/03/29 03:55:21;;;;;;;;;71.00;59.00;;;;;6.78;70.21;102139.41;5136889;27;11526;-76
2021/03/29 03:58:17;;;;;;;;;71.33;57.33;;;;;6.80;70.17;102139.94;5137047;27;11560;-75
2021/03/29 04:01:14;;;;;;;;;60.00;51.00;;;;;7.08;69.43;102149.66;5143566;27;11540;-75
2021/03/29 04:04:09;;;;;;;;;53.00;46.00;;;;;7.00;69.56;102150.19;5141101;27;11501;-75
2021/03/29 04:07:05;;;;;;;;;64.00;53.50;;;;;6.89;70.15;102138.31;5157388;27;11496;-75
2021/03/29 04:10:01;;;;;;;;;73.67;57.67;;;;;6.86;69.73;102138.88;5157635;27;11508;-74
2021/03/29 04:12:58;;;;;;;;;73.67;58.00;;;;;6.67;70.48;102138.53;5143083;27;11500;-76
2021/03/29 04:15:56;;;;;;;;;66.00;56.00;;;;;6.77;70.73;102128.66;5135548;27;11497;-75
2021/03/29 04:18:51;;;;;;;;;70.00;51.33;;;;;6.70;70.62;102139.91;5146187;27;8833;-76
2021/03/29 04:21:48;;;;;;;;;57.33;49.33;;;;;6.77;70.62;102142.41;5135653;27;11539;-75
2021/03/29 04:24:44;;;;;;;;;44.25;40.75;;;;;6.57;71.48;102149.47;5114739;28;11571;-76
2021/03/29 04:27:40;;;;;;;;;56.00;46.25;;;;;6.90;70.47;102151.00;5122508;27;11545;-75
2021/03/29 04:30:36;;;;;;;;;45.25;41.00;;;;;7.05;70.24;102163.13;5121105;27;11591;-76
2021/03/29 04:33:31;;;;;;;;;50.25;45.25;;;;;7.15;69.73;102168.66;5136500;27;11528;-76
2021/03/29 04:36:27;;;;;;;;;58.25;50.25;;;;;7.22;69.74;102166.47;5116979;27;11664;-74
2021/03/29 04:39:26;;;;;;;;;65.00;52.50;;;;;6.88;70.29;102166.09;5114631;27;11556;-75
2021/03/29 04:42:22;;;;;;;;;47.00;41.75;;;;;6.78;71.08;102163.31;5115685;27;11520;-74
2021/03/29 04:45:19;;;;;;;;;58.00;49.25;;;;;6.86;71.09;102160.88;5114998;28;11518;-75
2021/03/29 04:48:15;;;;;;;;;41.50;40.00;;;;;6.85;71.47;102152.91;5120355;27;11518;-76
2021/03/29 04:51:11;;;;;;;;;57.75;46.50;;;;;6.80;71.89;102153.69;5115285;27;11646;-76
2021/03/29 04:54:06;;;;;;;;;62.25;49.00;;;;;7.07;71.08;102160.94;5119272;27;11561;-76
2021/03/29 04:57:02;;;;;;;;;63.75;51.75;;;;;7.30;70.52;102157.69;5113666;28;11683;-76
2021/03/29 04:59:59;;;;;;;;;56.75;49.25;;;;;7.44;70.57;102168.97;5115730;28;11544;-77
2021/03/29 05:02:55;;;;;;;;;57.75;48.50;;;;;7.48;70.26;102157.13;5117597;28;11562;-76
2021/03/29 05:05:52;;;;;;;;;59.50;50.75;;;;;7.36;70.56;102172.25;5113571;28;11623;-77
2021/03/29 05:08:24;;;;;;;;;50.00;44.25;;;;;7.44;70.50;102166.22;5115534;28;11590;-76
2021/03/29 05:10:52;;;;;;;;;60.75;50.50;;;;;7.18;71.35;102166.19;5115721;28;11532;-76
2021/03/29 05:13:48;;;;;;;;;48.75;44.00;;;;;7.31;71.81;102159.31;5113769;28;11524;-76
2021/03/29 05:16:44;;;;;;;;;57.00;48.50;;;;;7.44;71.40;102161.56;5113587;28;11578;-76
2021/03/29 05:19:39;;;;;;;;;49.00;43.25;;;;;7.45;71.92;102165.13;5114148;28;12274;-76
2021/03/29 05:22:07;;;;;;;;;61.25;51.50;;;;;7.52;71.36;102173.94;5117053;27;11557;-76
2021/03/29 05:25:04;;;;;;;;;52.00;45.50;;;;;7.41;71.76;102183.28;5142498;27;11513;-76
2021/03/29 05:27:59;;;;;;;;;57.75;46.50;;;;;7.60;71.64;102187.16;5123471;27;11597;-76
2021/03/29 05:30:55;;;;;;;;;62.00;49.25;;;;;7.88;70.63;102198.72;5134658;27;11521;-74
2021/03/29 05:33:51;;;;;;;;;60.75;47.75;;;;;7.70;71.33;102197.34;5134286;27;11587;-75
2021/03/29 05:36:47;;;;;;;;;59.75;50.50;;;;;7.80;71.17;102189.91;5134970;27;11581;-76
2021/03/29 05:39:52;;;;;;;;;69.75;56.00;;;;;7.84;71.38;102187.44;5134440;27;11665;-76
2021/03/29 05:42:49;;;;;;;;;58.00;49.25;;;;;7.84;71.20;102181.94;5130081;27;11564;-77
2021/03/29 05:45:50;;;;;;;;;63.25;53.00;;;;;8.25;70.50;102173.59;5145397;27;11493;-74
2021/03/29 05:48:45;;;;;;;;;60.50;51.25;;;;;8.36;70.53;102175.28;5133738;27;11580;-75
2021/03/29 05:51:42;;;;;;;;;59.75;49.25;;;;;8.47;70.07;102187.09;5141389;27;11505;-76
2021/03/29 05:54:40;;;;;;;;;49.00;44.25;;;;;8.55;69.68;102181.00;5134811;27;11532;-75
2021/03/29 06:00:34;;;;;;;;;75.50;58.00;;;;;9.04;68.69;102185.75;5135417;27;11531;-76
2021/03/29 06:03:40;;;;;;;;;63.50;50.25;;;;;9.32;67.89;102181.44;5134978;27;12452;-76
2021/03/29 06:06:13;;;;;;;;;61.25;50.75;;;;;9.51;67.18;102179.66;5044953;28;11809;-77
2021/03/29 06:08:49;;;;;;;;;55.25;45.75;;;;;9.54;66.95;102189.31;5126079;27;11547;-74
2021/03/29 06:11:31;;;;;;;;;56.00;47.00;;;;;9.48;66.78;102185.75;5148139;27;11530;-74
2021/03/29 06:14:20;;;;;;;;;60.25;49.75;;;;;9.66;66.25;102185.06;5148164;27;11476;-68
2021/03/29 06:16:51;;;;;;;;;62.00;48.75;;;;;9.72;66.39;102191.34;5155587;27;11510;-74
2021/03/29 06:19:49;;;;;;;;;55.50;46.00;;;;;9.67;66.27;102191.41;5136401;27;11564;-73
2021/03/29 06:22:45;;;;;;;;;46.75;42.50;;;;;9.57;66.92;102197.81;5133751;27;12339;-74
2021/03/29 06:25:40;;;;;;;;;58.50;48.00;;;;;9.87;66.62;102199.53;5119830;27;11553;-75
2021/03/29 06:28:24;;;;;;;;;40.00;38.75;;;;;10.19;65.56;102204.47;5143412;27;11514;-73
2021/03/29 06:31:34;;;;;;;;;50.25;42.75;;;;;10.22;64.97;102208.63;5136903;27;11626;-74
2021/03/29 06:34:02;;;;;;;;;51.50;43.25;;;;;10.36;64.51;102214.31;5126531;27;11530;-73
2021/03/29 06:37:05;;;;;;;;;45.75;41.25;;;;;10.16;65.16;102221.66;5134907;27;11509;-72
2021/03/29 06:40:07;;;;;;;;;51.75;45.50;;;;;10.19;64.85;102223.81;5137092;27;11503;-74
2021/03/29 06:43:20;;;;;;;;;47.00;40.75;;;;;10.35;64.85;102227.34;5163503;27;11492;-76
2021/03/29 06:46:28;;;;;;;;;54.25;46.75;;;;;10.18;64.70;102227.72;5147965;27;11514;-74
2021/03/29 06:49:46;;;;;;;;;43.50;40.25;;;;;10.26;65.30;102235.41;5147872;27;11489;-76
2021/03/29 06:52:41;;;;;;;;;46.00;38.50;;;;;10.33;64.87;102235.06;5145761;27;11488;-74
2021/03/29 06:55:39;;;;;;;;;51.75;45.00;;;;;10.37;64.79;102235.34;5123959;27;11552;-74
2021/03/29 06:58:34;;;;;;;;;53.00;43.50;;;;;10.50;64.69;102231.84;5133995;27;11499;-75
2021/03/29 07:01:36;;;;;;;;;50.50;42.50;;;;;10.70;64.19;102231.63;5138546;27;11513;-76
2021/03/29 07:04:33;;;;;;;;;53.00;45.75;;;;;10.88;63.54;102238.34;5137800;27;11498;-75
2021/03/29 07:07:30;;;;;;;;;46.25;41.00;;;;;10.94;63.76;102236.34;5140556;27;11446;-75
2021/03/29 07:10:02;;;;;;;;;51.00;44.00;;;;;11.04;63.44;102245.34;5143638;27;11455;-74
2021/03/29 07:12:36;;;;;;;;;42.75;38.75;;;;;11.25;62.60;102243.13;5116858;27;11497;-75
2021/03/29 07:15:32;;;;;;;;;62.50;51.50;;;;;11.27;62.91;102251.13;5144951;27;11452;-75
2021/03/29 07:18:28;;;;;;;;;58.25;49.75;;;;;11.02;62.38;102252.28;5142013;27;11517;-75
2021/03/29 07:21:24;;;;;;;;;62.25;51.25;;;;;11.17;62.20;102256.81;5133032;27;12422;-75
2021/03/29 07:24:20;;;;;;;;;51.50;44.50;;;;;11.39;61.61;102263.44;5143756;27;11576;-76
2021/03/29 07:27:19;;;;;;;;;50.50;43.25;;;;;11.55;61.61;102252.13;5133992;27;11440;-74
2021/03/29 07:30:16;;;;;;;;;55.75;46.75;;;;;11.56;61.23;102249.06;5136731;27;11441;-75
2021/03/29 07:33:13;;;;;;;;;54.00;46.25;;;;;11.64;60.40;102250.31;5142342;27;11447;-76
2021/03/29 07:36:12;;;;;;;;;49.75;43.75;;;;;11.69;60.82;102253.03;5131999;27;11462;-76
2021/03/29 07:39:08;;;;;;;;;47.50;42.00;;;;;11.64;60.71;102255.88;5143236;27;11470;-75
2021/03/29 07:41:39;;;;;;;;;50.25;44.00;;;;;11.46;61.29;102253.94;5148573;27;11456;-75
2021/03/29 07:44:58;;;;;;;;;54.25;46.00;;;;;11.47;61.04;102266.66;5119069;27;11477;-75
2021/03/29 07:47:55;;;;;;;;;52.50;45.50;;;;;11.79;59.95;102263.94;5133903;27;11495;-75
2021/03/29 07:50:50;;;;;;;;;54.00;45.50;;;;;11.52;60.73;102259.09;5152790;27;11479;-75
2021/03/29 07:53:49;;;;;;;;;52.50;45.25;;;;;11.54;61.08;102267.13;5153856;27;11665;-75
2021/03/29 07:56:34;;;;;;;;;51.50;43.25;;;;;11.57;60.92;102263.72;5141996;27;11459;-75
2021/03/29 07:59:45;;;;;;;;;46.75;39.75;;;;;11.20;61.58;102261.78;5153418;27;11587;-76
2021/03/29 08:02:31;;;;;;;;;50.50;42.25;;;;;10.98;62.18;102256.78;5134145;27;11518;-74
2021/03/29 08:05:36;;;;;;;;;47.50;41.25;;;;;11.46;61.19;102256.69;5132613;27;11470;-75
2021/03/29 08:08:33;;;;;;;;;48.75;42.75;;;;;11.23;61.33;102255.63;5133486;27;11485;-75
2021/03/29 08:11:56;;;;;;;;;44.25;40.50;;;;;11.47;60.67;102256.41;5132744;27;12359;-74
2021/03/29 08:14:54;;;;;;;;;51.00;43.75;;;;;11.35;61.38;102261.56;5135460;27;11502;-75
2021/03/29 08:17:44;;;;;;;;;47.25;41.50;;;;;11.46;60.67;102262.25;5158847;27;12218;-74
2021/03/29 08:20:46;;;;;;;;;54.00;45.25;;;;;11.48;61.06;102268.31;5157116;27;11463;-74
2021/03/29 08:23:43;;;;;;;;;49.75;42.75;;;;;11.43;60.78;102265.63;5157193;27;11528;-76
2021/03/29 08:26:38;;;;;;;;;52.50;44.75;;;;;11.35;60.97;102272.66;5149843;27;11453;-74
2021/03/29 08:29:42;;;;;;;;;53.75;46.00;;;;;11.35;61.30;102267.94;5144919;27;11459;-75
2021/03/29 08:32:15;;;;;;;;;53.00;44.00;;;;;11.58;60.56;102268.19;5103311;27;11537;-75
2021/03/29 08:35:18;;;;;;;;;53.25;44.50;;;;;11.48;61.03;102273.84;5138364;27;11452;-74
2021/03/29 08:38:14;;;;;;;;;45.25;40.50;;;;;11.33;61.14;102272.09;5136075;27;11442;-75
2021/03/29 08:41:14;;;;;;;;;51.50;42.00;;;;;11.54;61.08;102258.78;5129821;27;11437;-76
2021/03/29 08:44:10;;;;;;;;;46.75;41.00;;;;;11.65;61.02;102258.38;5157063;27;11556;-74
2021/03/29 08:47:20;;;;;;;;;50.75;43.50;;;;;11.82;60.53;102268.94;5152386;27;11620;-75
2021/03/29 08:50:26;;;;;;;;;55.75;45.75;;;;;11.95;60.30;102270.94;5138207;27;11442;-76
2021/03/29 08:53:22;;;;;;;;;42.50;39.00;;;;;11.99;60.25;102270.34;5135483;27;12188;-74
2021/03/29 08:56:17;;;;;;;;;46.50;41.50;;;;;12.11;60.32;102267.91;5121613;27;11661;-76
2021/03/29 08:59:13;;;;;;;;;55.00;47.25;;;;;12.37;59.90;102277.44;5121466;27;11558;-74
2021/03/29 09:01:54;;;;;;;;;47.75;42.00;;;;;12.27;59.38;102268.47;5142719;27;11485;-76
2021/03/29 09:04:21;;;;;;;;;47.50;42.25;;;;;12.51;58.65;102278.31;5141330;27;11463;-79
2021/03/29 09:07:05;;;;;;;;;48.75;42.00;;;;;12.56;58.86;102282.09;5136453;27;11474;-76
2021/03/29 09:10:00;;;;;;;;;49.50;41.75;;;;;12.31;58.79;102275.06;5135332;27;11259;-76
2021/03/29 09:12:56;;;;;;;;;50.00;43.50;;;;;12.52;58.65;102284.69;5134689;27;11699;-74
2021/03/29 09:15:45;;;;;;;;;37.25;36.00;;;;;12.62;58.50;102280.88;5136063;27;11257;-75
2021/03/29 09:18:24;;;;;;;;;43.00;38.75;;;;;13.06;57.68;102277.53;5136090;27;11245;-75
2021/03/29 09:21:24;;;;;;;;;41.00;37.50;;;;;13.27;57.46;102283.50;5135106;27;11198;-74
2021/03/29 09:24:27;;;;;;;;;44.50;39.25;;;;;13.64;55.62;102299.91;5134318;27;11943;-75
2021/03/29 09:27:55;;;;;;;;;39.00;36.50;;;;;13.98;55.04;102283.84;5135196;27;11039;-75
2021/03/29 09:30:51;;;;;;;;;47.00;40.25;;;;;13.88;54.59;102279.34;5135175;27;10935;-74
2021/03/29 09:33:48;;;;;;;;;43.50;40.00;;;;;14.05;54.56;102289.78;5135011;27;10723;-75
2021/03/29 09:36:18;;;;;;;;;42.25;38.00;;;;;14.33;54.66;102296.84;5136152;27;10691;-75
2021/03/29 09:38:55;;;;;;;;;47.50;40.50;;;;;14.56;53.88;102288.50;5117588;27;10829;-74
2021/03/29 09:41:34;;;;;;;;;47.25;40.75;;;;;14.80;53.89;102286.19;5130802;27;10958;-76
2021/03/29 09:44:08;;;;;;;;;35.00;33.75;;;;;15.14;53.13;102282.69;5149656;27;11499;-74
2021/03/29 09:46:38;;;;;;;;;39.75;37.00;;;;;15.53;52.17;102287.38;5117151;27;10407;-75
2021/03/29 09:49:51;;;;;;;;;41.50;37.25;;;;;15.51;50.73;102289.66;5134333;27;10314;-75
2021/03/29 09:52:46;;;;;;;;;44.00;37.00;;;;;15.58;49.47;102297.56;5136581;27;10333;-74
2021/03/29 09:55:48;;;;;;;;;46.75;39.50;;;;;15.71;49.28;102296.59;5138508;27;10278;-75
2021/03/29 09:58:47;;;;;;;;;35.25;34.25;;;;;15.84;48.90;102292.00;5138028;27;10335;-75
2021/03/29 10:01:44;;;;;;;;;37.25;34.50;;;;;15.57;49.65;102302.31;5145276;27;9933;-75
2021/03/29 10:04:41;;;;;;;;;37.00;35.00;;;;;15.74;49.07;102292.34;5142124;27;10093;-75
2021/03/29 10:07:55;;;;;;;;;44.50;39.00;;;;;15.82;48.56;102292.34;5131583;27;10105;-75
2021/03/29 10:10:29;;;;;;;;;36.00;34.75;;;;;16.04;49.38;102293.34;5128835;27;9842;-78
2021/03/29 10:13:15;;;;;;;;;37.25;35.25;;;;;15.88;48.47;102306.16;5135615;27;9844;-75
2021/03/29 10:16:20;;;;;;;;;34.50;33.50;;;;;16.03;48.52;102306.47;5147458;27;9651;-75
2021/03/29 10:19:19;;;;;;;;;37.75;35.00;;;;;16.23;47.48;102288.22;5136280;27;9853;-77
2021/03/29 10:22:17;;;;;;;;;43.25;38.25;;;;;16.18;48.40;102295.94;5134473;27;9917;-78
2021/03/29 10:25:21;;;;;;;;;41.75;37.25;;;;;16.13;47.97;102285.78;5133553;27;10353;-76
2021/03/29 10:28:03;;;;;;;;;37.00;35.00;;;;;16.22;47.61;102282.97;5150890;27;9923;-77
2021/03/29 10:30:58;;;;;;;;;38.00;35.50;;;;;16.08;47.12;102283.97;5154411;27;9806;-77
2021/03/29 10:33:26;;;;;;;;;43.50;38.75;;;;;15.77;47.69;102286.91;5137656;27;9877;-75
2021/03/29 10:36:24;;;;;;;;;37.75;35.00;;;;;16.09;47.56;102285.59;5124657;27;9876;-75
2021/03/29 10:39:19;;;;;;;;;42.75;37.25;;;;;15.87;47.47;102282.16;5142074;27;10082;-77
2021/03/29 10:42:16;;;;;;;;;43.00;36.75;;;;;15.70;47.21;102286.59;5138481;27;9996;-75
2021/03/29 10:45:14;;;;;;;;;34.25;33.50;;;;;15.65;47.86;102289.56;5127997;27;9976;-74
2021/03/29 10:48:11;;;;;;;;;41.00;37.75;;;;;15.78;47.75;102291.34;5133708;27;9949;-76
2021/03/29 10:51:09;;;;;;;;;38.50;35.25;;;;;15.52;47.60;102280.16;5151449;27;9998;-76
2021/03/29 10:54:05;;;;;;;;;40.50;35.75;;;;;15.11;47.79;102277.78;5154184;27;9970;-77
2021/03/29 10:57:00;;;;;;;;;33.25;32.75;;;;;15.50;47.76;102288.03;5154215;27;10171;-77
2021/03/29 10:59:57;;;;;;;;;42.25;36.75;;;;;15.58;47.73;102286.41;5150317;27;9895;-76
2021/03/29 11:02:54;;;;;;;;;37.75;34.25;;;;;15.43;47.96;102276.53;5132797;27;10212;-75
2021/03/29 11:05:52;;;;;;;;;50.25;42.25;;;;;15.53;48.62;102278.19;5107642;27;9927;-75
2021/03/29 11:08:47;;;;;;;;;39.75;36.25;;;;;15.38;47.96;102282.25;5134370;27;10395;-74
2021/03/29 11:11:15;;;;;;;;;38.00;35.50;;;;;15.43;48.00;102278.50;5125716;27;10057;-75
2021/03/29 11:13:43;;;;;;;;;36.00;34.50;;;;;15.45;47.96;102281.78;5116431;27;10085;-75
2021/03/29 11:16:20;;;;;;;;;36.25;35.00;;;;;15.47;48.29;102285.88;5119563;27;10292;-75
2021/03/29 11:19:11;;;;;;;;;43.50;38.00;;;;;15.44;48.80;102306.06;5152534;27;10070;-75
2021/03/29 11:21:38;;;;;;;;;38.50;35.25;;;;;14.81;49.01;102298.97;5137022;27;10308;-74
2021/03/29 11:24:33;;;;;;;;;32.00;31.25;;;;;14.56;49.85;102299.63;5143283;27;10212;-75
2021/03/29 11:27:29;;;;;;;;;35.00;33.75;;;;;14.52;50.59;102301.44;5141626;27;10187;-74
2021/03/29 11:30:26;;;;;;;;;34.00;33.50;;;;;14.63;50.21;102300.00;5134656;27;10541;-75
2021/03/29 11:33:21;;;;;;;;;31.75;31.25;;;;;14.52;51.16;102304.22;5138154;27;10626;-75
2021/03/29 11:36:21;;;;;;;;;38.00;36.25;;;;;14.13;51.93;102302.94;5137452;27;11212;-74
2021/03/29 11:38:51;;;;;;;;;38.00;35.75;;;;;14.27;50.77;102312.06;5121152;27;10401;-76
2021/03/29 11:41:47;;;;;;;;;36.00;35.00;;;;;13.95;51.94;102304.75;5137837;27;10398;-75
2021/03/29 11:44:43;;;;;;;;;39.50;36.00;;;;;14.23;52.33;102304.63;5133590;27;10521;-75
2021/03/29 11:47:41;;;;;;;;;33.50;33.00;;;;;14.19;52.79;102310.03;5123396;27;11491;-75
2021/03/29 11:50:37;;;;;;;;;38.50;34.50;;;;;14.29;52.38;102311.72;5124827;27;10471;-76
2021/03/29 11:53:34;;;;;;;;;32.50;31.00;;;;;14.36;51.78;102317.66;5137963;27;10719;-75
2021/03/29 11:56:37;;;;;;;;;45.25;39.25;;;;;14.21;53.06;102316.09;5123137;27;10388;-76
2021/03/29 11:59:36;;;;;;;;;38.75;36.50;;;;;14.36;52.99;102318.50;5138276;27;10580;-75
2021/03/29 12:02:11;;;;;;;;;35.50;34.00;;;;;14.51;52.71;102322.88;5123794;27;10536;-77
2021/03/29 12:05:16;;;;;;;;;47.25;42.00;;;;;14.37;53.47;102316.53;5122638;27;10667;-76
2021/03/29 12:14:41;;;;;;;;;32.00;31.50;;;;;14.52;54.05;102327.31;5145613;27;11370;-76
2021/03/29 12:17:38;;;;;;;;;34.75;33.75;;;;;14.38;54.49;102320.94;5146137;27;10526;-76
2021/03/29 12:20:33;;;;;;;;;26.25;26.25;;;;;14.36;54.46;102329.63;5133117;27;10286;-75
2021/03/29 12:23:30;;;;;;;;;34.75;34.25;;;;;13.99;54.73;102328.03;5138392;27;10580;-75
2021/03/29 12:26:27;;;;;;;;;34.00;33.50;;;;;13.82;55.23;102325.91;5132456;27;10474;-78
2021/03/29 12:29:38;;;;;;;;;34.75;32.75;;;;;13.94;55.30;102330.91;5146247;27;10539;-76
2021/03/29 12:32:37;;;;;;;;;34.25;34.00;;;;;13.90;55.11;102332.69;5147339;27;10487;-76
2021/03/29 12:35:33;;;;;;;;;29.50;29.25;;;;;13.75;54.52;102336.66;5149097;27;10538;-75
2021/03/29 12:38:10;;;;;;;;;29.25;29.25;;;;;13.73;54.32;102332.53;5132945;27;12482;-75
2021/03/29 12:41:08;;;;;;;;;31.25;31.25;;;;;13.56;55.15;102335.94;5146714;27;10582;-75
2021/03/29 12:44:10;;;;;;;;;27.25;27.25;;;;;13.54;54.95;102336.28;5150378;27;10566;-77
2021/03/29 12:47:09;;;;;;;;;33.50;32.75;;;;;13.55;55.26;102339.88;5146339;27;10682;-77
2021/03/29 12:50:13;;;;;;;;;28.00;28.00;;;;;13.64;56.32;102340.78;5148088;27;11329;-75
2021/03/29 12:53:13;;;;;;;;;37.00;35.00;;;;;13.44;56.91;102352.34;5146424;27;10597;-76
2021/03/29 12:56:09;;;;;;;;;33.50;33.50;;;;;13.32;57.67;102348.13;5134956;27;11582;-76
2021/03/29 12:59:06;;;;;;;;;31.25;30.75;;;;;13.03;58.48;102351.19;5133340;27;10828;-75
2021/03/29 13:02:03;;;;;;;;;31.25;31.00;;;;;13.28;57.48;102349.88;5147122;27;10615;-73
2021/03/29 13:04:37;;;;;;;;;30.50;30.50;;;;;13.27;57.61;102358.53;5126606;27;10495;-77
2021/03/29 13:07:42;;;;;;;;;30.25;30.25;;;;;13.09;56.10;102360.22;5145450;27;10537;-73
2021/03/29 13:13:52;;;;;;;;;21.50;21.50;;;;;13.12;54.47;102356.03;5127497;27;11182;-74
2021/03/29 13:16:47;;;;;;;;;23.75;23.25;;;;;13.04;54.20;102365.91;5143527;27;10543;-76
2021/03/29 13:19:43;;;;;;;;;34.75;34.25;;;;;13.04;54.81;102360.34;5143162;27;10630;-78
2021/03/29 13:22:40;;;;;;;;;35.50;34.25;;;;;12.83;54.91;102372.97;5133933;27;10805;-77
2021/03/29 13:25:40;;;;;;;;;25.25;23.50;;;;;12.92;54.86;102363.59;5138006;27;10885;-75
2021/03/29 13:28:37;;;;;;;;;20.25;20.25;;;;;12.98;54.41;102361.56;5128507;27;10762;-75
2021/03/29 13:31:33;;;;;;;;;30.00;28.00;;;;;13.01;55.17;102360.94;5144301;27;11387;-77
2021/03/29 13:34:28;;;;;;;;;37.25;32.50;;;;;13.14;55.40;102362.09;5129486;27;11556;-79